Time;durP1;ratioP1;P1;durP2;ratioP2;P2;SDS_P1;SDS_P2;PMS_P1;PMS_P2;Temp;Humidity;BMP_temperature;BMP_pressure;BME280_temperature;BME280_humidity;BME280_pressure;Samples;Min_cycle;Max_cycle;Signal;HPM_P1;HPM_P2
2021/05/31 00:01:54;;;;;;;3.60;3.00;;;;;;;;;;5045289;28;20571;-82
2021/05/31 00:04:22;;;;;;;4.45;2.97;;;;;;;;;;5045309;28;20215;-83
2021/05/31 00:06:51;;;;;;;3.25;2.63;;;;;;;;;;5046105;28;20566;-82
2021/05/31 00:09:18;;;;;;;3.35;3.05;;;;;;;;;;5046609;28;20568;-83
2021/05/31 00:11:46;;;;;;;3.72;3.42;;;;;;;;;;5046357;28;20297;-83
2021/05/31 00:14:13;;;;;;;2.75;2.55;;;;;;;;;;5046277;28;20647;-83
2021/05/31 00:16:42;;;;;;;3.00;2.80;;;;;;;;;;5045482;28;20283;-82
2021/05/31 00:19:10;;;;;;;3.33;2.95;;;;;;;;;;5045552;28;20233;-82
2021/05/31 00:21:37;;;;;;;3.00;2.80;;;;;;;;;;5044670;28;20222;-82
2021/05/31 00:24:05;;;;;;;4.55;2.58;;;;;;;;;;5045769;28;20273;-83
2021/05/31 00:26:31;;;;;;;4.53;2.72;;;;;;;;;;5046184;28;20203;-83
2021/05/31 00:28:59;;;;;;;4.07;3.17;;;;;;;;;;5045720;28;20645;-82
2021/05/31 00:31:26;;;;;;;4.60;3.28;;;;;;;;;;5046132;28;20178;-82
2021/05/31 00:33:53;;;;;;;4.00;3.58;;;;;;;;;;5045618;28;20222;-83
2021/05/31 00:36:20;;;;;;;3.35;2.88;;;;;;;;;;5046018;28;20316;-83
2021/05/31 00:38:47;;;;;;;3.65;3.35;;;;;;;;;;5045391;28;20207;-82
2021/05/31 00:41:14;;;;;;;4.57;3.30;;;;;;;;;;5045314;28;20203;-82
2021/05/31 00:43:41;;;;;;;3.22;2.90;;;;;;;;;;5045853;28;20600;-83
2021/05/31 00:46:10;;;;;;;4.13;3.30;;;;;;;;;;5045712;28;20657;-82
2021/05/31 00:48:38;;;;;;;3.88;2.70;;;;;;;;;;5045257;28;20206;-82
2021/05/31 00:51:09;;;;;;;3.08;2.28;;;;;;;;;;5044323;28;20209;-83
2021/05/31 00:53:36;;;;;;;2.63;2.42;;;;;;;;;;5045036;28;20190;-83
2021/05/31 00:56:04;;;;;;;3.38;2.67;;;;;;;;;;5044630;28;20208;-83
2021/05/31 00:58:32;;;;;;;2.72;2.53;;;;;;;;;;5045081;28;20218;-83
2021/05/31 01:01:01;;;;;;;2.88;2.67;;;;;;;;;;5044309;28;20653;-83
2021/05/31 01:03:29;;;;;;;3.13;2.75;;;;;;;;;;5044734;28;20855;-82
2021/05/31 01:06:00;;;;;;;2.72;2.47;;;;;;;;;;5044411;28;20205;-83
2021/05/31 01:08:32;;;;;;;2.60;2.40;;;;;;;;;;5044267;28;20194;-83
2021/05/31 01:11:03;;;;;;;2.95;2.50;;;;;;;;;;5044923;28;20396;-82
2021/05/31 01:13:39;;;;;;;3.78;2.65;;;;;;;;;;5044393;28;20225;-82
2021/05/31 01:16:10;;;;;;;2.70;2.50;;;;;;;;;;5044249;28;20562;-82
2021/05/31 01:18:41;;;;;;;2.45;2.25;;;;;;;;;;5044106;28;20222;-82
2021/05/31 01:21:19;;;;;;;3.17;2.85;;;;;;;;;;5044519;28;20199;-83
2021/05/31 01:24:02;;;;;;;3.28;2.85;;;;;;;;;;5043909;28;20722;-82
2021/05/31 01:26:47;;;;;;;3.03;2.72;;;;;;;;;;5044753;28;20194;-82
2021/05/31 01:29:16;;;;;;;3.63;2.88;;;;;;;;;;5044172;28;20694;-82
2021/05/31 01:31:48;;;;;;;2.55;2.35;;;;;;;;;;5044742;28;20207;-82
2021/05/31 01:34:19;;;;;;;3.78;3.20;;;;;;;;;;5044310;28;20222;-82
2021/05/31 01:36:49;;;;;;;4.95;2.88;;;;;;;;;;5045050;28;20233;-83
2021/05/31 01:39:24;;;;;;;5.47;3.42;;;;;;;;;;5044774;28;20336;-82
2021/05/31 01:41:51;;;;;;;3.25;3.05;;;;;;;;;;5044828;28;20529;-82
2021/05/31 01:44:20;;;;;;;4.32;3.33;;;;;;;;;;5044623;28;20222;-82
2021/05/31 01:46:48;;;;;;;3.20;2.90;;;;;;;;;;5045029;28;20207;-82
2021/05/31 01:49:15;;;;;;;3.70;3.47;;;;;;;;;;5044248;28;20198;-83
2021/05/31 01:51:43;;;;;;;3.20;2.90;;;;;;;;;;5045550;28;20179;-83
2021/05/31 01:54:12;;;;;;;4.25;3.17;;;;;;;;;;5045193;28;20222;-83
2021/05/31 01:56:41;;;;;;;3.88;2.88;;;;;;;;;;5044978;28;20205;-82
2021/05/31 01:59:08;;;;;;;5.10;4.60;;;;;;;;;;5044208;28;20750;-82
2021/05/31 02:01:36;;;;;;;3.78;3.25;;;;;;;;;;5043352;28;20259;-82
2021/05/31 02:04:03;;;;;;;6.57;3.50;;;;;;;;;;5044256;28;20649;-82
2021/05/31 02:06:30;;;;;;;2.92;2.72;;;;;;;;;;5044035;28;20250;-82
2021/05/31 02:08:57;;;;;;;3.30;3.00;;;;;;;;;;5043363;28;20202;-82
2021/05/31 02:11:42;;;;;;;3.38;3.08;;;;;;;;;;5043872;28;20240;-82
2021/05/31 02:14:14;;;;;;;3.25;2.88;;;;;;;;;;5042544;28;20309;-82
2021/05/31 02:16:50;;;;;;;3.50;3.20;;;;;;;;;;5042966;28;20588;-82
2021/05/31 02:19:17;;;;;;;3.45;3.15;;;;;;;;;;5043033;28;20196;-82
2021/05/31 02:21:45;;;;;;;3.45;3.10;;;;;;;;;;5042555;28;20182;-82
2021/05/31 02:24:12;;;;;;;4.38;3.00;;;;;;;;;;5042795;28;20230;-82
2021/05/31 02:26:39;;;;;;;2.95;2.40;;;;;;;;;;5042918;28;20233;-82
2021/05/31 02:29:05;;;;;;;3.72;2.88;;;;;;;;;;5042520;28;20274;-82
2021/05/31 02:31:33;;;;;;;3.42;3.10;;;;;;;;;;5043134;28;20178;-82
2021/05/31 02:34:01;;;;;;;5.28;3.30;;;;;;;;;;5042153;28;20661;-82
2021/05/31 02:36:28;;;;;;;3.80;3.50;;;;;;;;;;5042123;28;20230;-82
2021/05/31 02:38:55;;;;;;;3.78;3.05;;;;;;;;;;5042317;28;20704;-82
2021/05/31 02:41:22;;;;;;;3.28;3.00;;;;;;;;;;5042919;28;20183;-82
2021/05/31 02:43:49;;;;;;;5.50;3.08;;;;;;;;;;5040947;28;20222;-83
2021/05/31 02:46:16;;;;;;;3.72;3.40;;;;;;;;;;5042211;28;20206;-82
2021/05/31 02:48:42;;;;;;;2.63;2.42;;;;;;;;;;5042475;28;20664;-82
2021/05/31 02:51:11;;;;;;;2.85;2.65;;;;;;;;;;5042229;28;20205;-82
2021/05/31 02:53:38;;;;;;;3.03;2.75;;;;;;;;;;5043317;28;20206;-82
2021/05/31 02:56:07;;;;;;;3.08;2.65;;;;;;;;;;5043479;28;20213;-82
2021/05/31 02:58:34;;;;;;;2.75;2.55;;;;;;;;;;5044168;28;20222;-82
2021/05/31 03:01:01;;;;;;;3.38;2.80;;;;;;;;;;5043509;28;20210;-82
2021/05/31 03:03:27;;;;;;;2.95;2.67;;;;;;;;;;5043311;28;20225;-84
2021/05/31 03:05:57;;;;;;;3.22;2.92;;;;;;;;;;5043759;28;20199;-82
2021/05/31 03:08:25;;;;;;;3.78;3.47;;;;;;;;;;5044072;28;20199;-82
2021/05/31 03:10:53;;;;;;;3.88;3.22;;;;;;;;;;5044321;28;20210;-82
2021/05/31 03:13:21;;;;;;;3.45;2.97;;;;;;;;;;5043725;28;20572;-82
2021/05/31 03:15:49;;;;;;;3.60;3.00;;;;;;;;;;5044314;28;20206;-82
2021/05/31 03:18:16;;;;;;;4.28;3.60;;;;;;;;;;5043794;28;20247;-82
2021/05/31 03:20:43;;;;;;;3.42;3.00;;;;;;;;;;5043515;28;20205;-83
2021/05/31 03:23:10;;;;;;;3.75;3.33;;;;;;;;;;5043769;28;20558;-82
2021/05/31 03:25:39;;;;;;;5.97;3.67;;;;;;;;;;5043827;28;20229;-82
2021/05/31 03:28:06;;;;;;;3.72;3.42;;;;;;;;;;5043975;28;20198;-82
2021/05/31 03:30:33;;;;;;;3.42;3.13;;;;;;;;;;5043697;28;20206;-83
2021/05/31 03:33:00;;;;;;;3.72;3.05;;;;;;;;;;5043715;28;20332;-83
2021/05/31 03:35:27;;;;;;;3.75;2.90;;;;;;;;;;5043908;28;20271;-83
2021/05/31 03:37:54;;;;;;;8.82;3.40;;;;;;;;;;5043727;28;20226;-83
2021/05/31 03:40:22;;;;;;;4.43;3.78;;;;;;;;;;5043885;28;20597;-83
2021/05/31 03:42:51;;;;;;;6.60;3.33;;;;;;;;;;5043860;28;20229;-82
2021/05/31 03:45:19;;;;;;;3.88;3.47;;;;;;;;;;5042936;28;20222;-83
2021/05/31 03:47:46;;;;;;;3.50;3.20;;;;;;;;;;5043594;28;20202;-83
2021/05/31 03:50:13;;;;;;;4.13;3.65;;;;;;;;;;5044560;28;20228;-83
2021/05/31 03:52:40;;;;;;;4.10;2.85;;;;;;;;;;5043773;28;20203;-83
2021/05/31 03:55:11;;;;;;;3.38;2.95;;;;;;;;;;5044149;28;20626;-83
2021/05/31 03:57:39;;;;;;;3.63;3.33;;;;;;;;;;5047023;28;20695;-83
2021/05/31 04:00:10;;;;;;;3.67;2.97;;;;;;;;;;5047609;28;20214;-83
2021/05/31 04:02:39;;;;;;;3.33;3.08;;;;;;;;;;5047235;28;20758;-83
2021/05/31 04:05:09;;;;;;;3.90;3.40;;;;;;;;;;5046844;28;20286;-83
2021/05/31 04:13:14;;;;;;;4.13;3.72;;;;;;;;;;5047176;28;20263;-83
2021/05/31 04:15:42;;;;;;;3.13;2.83;;;;;;;;;;5047114;28;20229;-83
2021/05/31 04:18:09;;;;;;;2.88;2.67;;;;;;;;;;5046816;28;20226;-83
2021/05/31 04:20:36;;;;;;;3.42;3.10;;;;;;;;;;5047140;28;20212;-83
2021/05/31 04:23:03;;;;;;;3.58;3.20;;;;;;;;;;5046732;28;20213;-83
2021/05/31 04:25:30;;;;;;;3.42;3.15;;;;;;;;;;5046595;28;20301;-83
2021/05/31 04:27:57;;;;;;;4.10;3.70;;;;;;;;;;5046272;28;20207;-83
2021/05/31 04:30:24;;;;;;;3.90;3.00;;;;;;;;;;5046817;28;20206;-83
2021/05/31 04:32:52;;;;;;;4.82;3.40;;;;;;;;;;5047004;28;20202;-83
2021/05/31 04:35:19;;;;;;;5.28;3.63;;;;;;;;;;5047247;28;20231;-83
2021/05/31 04:37:46;;;;;;;3.85;3.45;;;;;;;;;;5047821;28;20313;-83
2021/05/31 04:40:14;;;;;;;3.83;3.35;;;;;;;;;;5046610;28;20265;-83
2021/05/31 04:42:41;;;;;;;3.60;3.30;;;;;;;;;;5047538;28;20288;-83
2021/05/31 04:45:10;;;;;;;4.30;3.45;;;;;;;;;;5046330;28;20240;-83
2021/05/31 04:47:37;;;;;;;3.00;2.80;;;;;;;;;;5046415;28;20206;-83
2021/05/31 04:50:07;;;;;;;3.17;2.90;;;;;;;;;;5047251;28;20562;-83
2021/05/31 04:52:33;;;;;;;3.30;2.75;;;;;;;;;;5046876;28;20195;-83
2021/05/31 04:55:00;;;;;;;3.17;2.92;;;;;;;;;;5045681;28;20226;-83
2021/05/31 04:57:27;;;;;;;3.13;2.92;;;;;;;;;;5046661;28;20218;-84
2021/05/31 04:59:55;;;;;;;3.10;2.78;;;;;;;;;;5046391;28;20226;-83
2021/05/31 05:02:22;;;;;;;4.05;3.30;;;;;;;;;;5046754;28;20806;-83
2021/05/31 05:04:48;;;;;;;3.45;3.17;;;;;;;;;;5045264;28;20230;-83
2021/05/31 05:07:18;;;;;;;4.20;3.80;;;;;;;;;;5044904;28;20228;-83
2021/05/31 05:09:45;;;;;;;3.42;3.13;;;;;;;;;;5045981;28;20202;-85
2021/05/31 05:12:12;;;;;;;3.97;3.42;;;;;;;;;;5046845;28;20202;-85
2021/05/31 05:14:39;;;;;;;4.40;3.60;;;;;;;;;;5046991;28;20704;-85
2021/05/31 05:17:06;;;;;;;3.85;3.33;;;;;;;;;;5047384;28;20275;-85
2021/05/31 05:19:33;;;;;;;3.88;3.33;;;;;;;;;;5046381;28;20226;-85
2021/05/31 05:22:01;;;;;;;3.90;3.10;;;;;;;;;;5047985;28;20206;-84
2021/05/31 05:24:29;;;;;;;3.97;3.67;;;;;;;;;;5047792;28;20214;-85
2021/05/31 05:26:56;;;;;;;3.63;3.33;;;;;;;;;;5048458;28;20222;-84
2021/05/31 05:29:23;;;;;;;6.35;3.40;;;;;;;;;;5047088;28;20289;-85
2021/05/31 05:31:50;;;;;;;3.80;3.30;;;;;;;;;;5047137;28;20228;-84
2021/05/31 05:34:17;;;;;;;4.65;3.60;;;;;;;;;;5047544;28;20222;-85
2021/05/31 05:36:49;;;;;;;5.32;4.10;;;;;;;;;;5046651;28;20234;-84
2021/05/31 05:39:30;;;;;;;3.90;3.50;;;;;;;;;;5046885;28;20289;-84
2021/05/31 05:42:13;;;;;;;4.60;4.03;;;;;;;;;;5045584;28;20236;-84
2021/05/31 05:45:08;;;;;;;4.47;4.07;;;;;;;;;;5046073;28;20229;-84
2021/05/31 05:47:44;;;;;;;5.07;3.92;;;;;;;;;;5042523;28;20187;-85
2021/05/31 05:50:13;;;;;;;10.93;3.63;;;;;;;;;;5042323;28;20253;-85
2021/05/31 05:52:41;;;;;;;4.90;3.65;;;;;;;;;;5043599;28;20191;-86
2021/05/31 05:55:11;;;;;;;4.15;3.67;;;;;;;;;;5041841;28;20660;-85
2021/05/31 05:57:41;;;;;;;3.33;3.03;;;;;;;;;;5040465;28;20672;-85
2021/05/31 06:00:11;;;;;;;4.28;3.72;;;;;;;;;;5040398;28;20210;-85
2021/05/31 06:02:39;;;;;;;4.07;3.78;;;;;;;;;;5041671;28;20599;-85
2021/05/31 06:05:07;;;;;;;4.47;3.72;;;;;;;;;;5041265;28;21021;-84
2021/05/31 06:07:34;;;;;;;3.70;3.40;;;;;;;;;;5040869;28;20245;-85
2021/05/31 06:10:01;;;;;;;6.90;5.22;;;;;;;;;;5041743;28;20570;-86
2021/05/31 06:12:28;;;;;;;3.65;3.35;;;;;;;;;;5040889;28;20203;-85
2021/05/31 06:14:57;;;;;;;5.40;4.90;;;;;;;;;;5039612;28;20226;-86
2021/05/31 06:17:24;;;;;;;4.20;3.80;;;;;;;;;;5039848;28;20578;-85
2021/05/31 06:19:51;;;;;;;3.70;3.42;;;;;;;;;;5040131;28;20305;-85
2021/05/31 06:22:18;;;;;;;3.63;3.33;;;;;;;;;;5041017;28;20614;-84
2021/05/31 06:24:46;;;;;;;10.50;6.15;;;;;;;;;;5040786;28;20222;-86
2021/05/31 06:27:13;;;;;;;4.00;3.65;;;;;;;;;;5038537;28;20206;-86
2021/05/31 06:29:40;;;;;;;5.38;4.03;;;;;;;;;;5037794;28;20236;-83
2021/05/31 06:32:09;;;;;;;3.88;3.53;;;;;;;;;;5037207;28;20209;-85
2021/05/31 06:34:36;;;;;;;4.05;3.63;;;;;;;;;;5037270;28;20222;-85
2021/05/31 06:37:03;;;;;;;4.22;3.83;;;;;;;;;;5036786;28;20222;-84
2021/05/31 06:39:30;;;;;;;3.97;3.53;;;;;;;;;;5036994;28;20206;-83
2021/05/31 06:41:57;;;;;;;4.35;3.95;;;;;;;;;;5038854;28;20206;-84
2021/05/31 06:44:24;;;;;;;3.85;3.47;;;;;;;;;;5039603;28;20226;-85
2021/05/31 06:46:51;;;;;;;3.88;3.47;;;;;;;;;;5041271;28;20205;-84
2021/05/31 06:49:19;;;;;;;4.70;3.72;;;;;;;;;;5039534;28;20187;-85
2021/05/31 06:51:46;;;;;;;3.53;3.22;;;;;;;;;;5041023;28;20232;-84
2021/05/31 06:54:13;;;;;;;3.45;3.15;;;;;;;;;;5041393;28;20246;-84
2021/05/31 06:56:41;;;;;;;3.88;3.58;;;;;;;;;;5041327;28;20206;-85
2021/05/31 06:59:08;;;;;;;6.40;4.03;;;;;;;;;;5040826;28;20234;-85
2021/05/31 07:01:35;;;;;;;17.17;5.47;;;;;;;;;;5039742;28;20190;-86
2021/05/31 07:04:02;;;;;;;5.97;4.05;;;;;;;;;;5036118;28;20222;-83
2021/05/31 07:06:30;;;;;;;4.00;3.17;;;;;;;;;;5034930;28;20206;-85
2021/05/31 07:08:57;;;;;;;3.53;3.10;;;;;;;;;;5035309;28;20194;-84
2021/05/31 07:11:24;;;;;;;3.60;3.20;;;;;;;;;;5035285;28;20202;-85
2021/05/31 07:13:54;;;;;;;5.05;4.65;;;;;;;;;;5035079;28;20267;-84
2021/05/31 07:16:21;;;;;;;3.90;3.55;;;;;;;;;;5035445;28;20183;-84
2021/05/31 07:18:48;;;;;;;3.92;3.53;;;;;;;;;;5034301;28;20582;-87
2021/05/31 07:21:15;;;;;;;3.72;3.10;;;;;;;;;;5034996;28;20195;-85
2021/05/31 07:23:44;;;;;;;4.00;3.65;;;;;;;;;;5034216;28;20778;-85
2021/05/31 07:26:11;;;;;;;3.90;3.50;;;;;;;;;;5034553;28;20189;-85
2021/05/31 07:28:38;;;;;;;3.47;3.17;;;;;;;;;;5034483;28;20703;-84
2021/05/31 07:31:04;;;;;;;3.42;3.13;;;;;;;;;;5035807;28;20198;-85
2021/05/31 07:33:31;;;;;;;3.28;2.85;;;;;;;;;;5038934;28;20190;-85
2021/05/31 07:36:01;;;;;;;3.40;2.85;;;;;;;;;;5038317;28;20187;-84
2021/05/31 07:38:29;;;;;;;3.50;2.95;;;;;;;;;;5038650;28;20209;-84
2021/05/31 07:40:57;;;;;;;3.13;2.90;;;;;;;;;;5038093;28;20207;-84
2021/05/31 07:43:24;;;;;;;3.47;3.28;;;;;;;;;;5038088;28;20202;-85
2021/05/31 07:45:51;;;;;;;5.00;3.42;;;;;;;;;;5038343;28;20252;-84
2021/05/31 07:48:56;;;;;;;4.38;3.15;;;;;;;;;;5036984;28;20183;-84
2021/05/31 07:51:43;;;;;;;2.95;2.70;;;;;;;;;;5037973;28;20212;-85
2021/05/31 07:54:31;;;;;;;3.03;2.78;;;;;;;;;;5037823;28;20578;-85
2021/05/31 07:57:00;;;;;;;3.83;2.70;;;;;;;;;;5039008;28;20202;-83
2021/05/31 07:59:27;;;;;;;3.17;2.70;;;;;;;;;;5036694;28;20218;-84
2021/05/31 08:01:54;;;;;;;4.20;2.95;;;;;;;;;;5036894;28;20252;-86
2021/05/31 08:04:21;;;;;;;2.83;2.63;;;;;;;;;;5036241;28;20249;-85
2021/05/31 08:06:48;;;;;;;4.40;2.85;;;;;;;;;;5035915;28;20202;-85
2021/05/31 08:09:16;;;;;;;2.53;2.33;;;;;;;;;;5035669;28;20224;-85
2021/05/31 08:11:43;;;;;;;2.58;2.38;;;;;;;;;;5035850;28;20202;-84
2021/05/31 08:14:11;;;;;;;3.30;3.00;;;;;;;;;;5035667;28;20222;-85
2021/05/31 08:16:38;;;;;;;3.00;2.80;;;;;;;;;;5036064;28;20256;-84
2021/05/31 08:19:07;;;;;;;3.47;2.95;;;;;;;;;;5035802;28;20605;-85
2021/05/31 08:21:34;;;;;;;2.53;2.30;;;;;;;;;;5035015;28;20268;-84
2021/05/31 08:24:01;;;;;;;2.67;2.47;;;;;;;;;;5035471;28;20218;-85
2021/05/31 08:26:28;;;;;;;3.15;2.85;;;;;;;;;;5035085;28;20202;-84
2021/05/31 08:28:55;;;;;;;2.95;2.33;;;;;;;;;;5035890;28;20191;-84
2021/05/31 08:31:24;;;;;;;2.60;2.30;;;;;;;;;;5036277;28;20183;-85
2021/05/31 08:33:51;;;;;;;2.80;2.50;;;;;;;;;;5034578;28;20660;-85
2021/05/31 08:36:18;;;;;;;2.60;2.40;;;;;;;;;;5034849;28;20229;-84
2021/05/31 08:38:45;;;;;;;2.53;2.35;;;;;;;;;;5035589;28;20202;-84
2021/05/31 08:41:12;;;;;;;5.25;2.67;;;;;;;;;;5035135;28;20319;-83
2021/05/31 08:43:39;;;;;;;5.47;2.95;;;;;;;;;;5034358;28;20680;-83
2021/05/31 08:46:06;;;;;;;3.33;2.53;;;;;;;;;;5034996;28;20210;-86
2021/05/31 08:48:34;;;;;;;2.85;2.35;;;;;;;;;;5034554;28;20203;-85
2021/05/31 08:51:01;;;;;;;2.58;2.38;;;;;;;;;;5034114;28;20206;-83
2021/05/31 08:53:28;;;;;;;2.45;2.20;;;;;;;;;;5034797;28;20191;-86
2021/05/31 08:55:55;;;;;;;2.85;2.55;;;;;;;;;;5034554;28;20233;-85
2021/05/31 08:58:22;;;;;;;2.55;2.35;;;;;;;;;;5034620;28;20187;-84
2021/05/31 09:00:49;;;;;;;3.88;2.83;;;;;;;;;;5034408;28;20211;-84
2021/05/31 09:03:19;;;;;;;2.67;2.47;;;;;;;;;;5034355;28;20206;-85
2021/05/31 09:05:49;;;;;;;2.33;2.15;;;;;;;;;;5033936;28;20233;-87
2021/05/31 09:08:18;;;;;;;3.15;2.42;;;;;;;;;;5034555;28;20199;-84
2021/05/31 09:10:48;;;;;;;3.58;2.85;;;;;;;;;;5035059;28;20195;-83
2021/05/31 09:13:28;;;;;;;5.43;3.20;;;;;;;;;;5034442;28;20214;-84
2021/05/31 09:16:10;;;;;;;2.72;2.53;;;;;;;;;;5033549;28;20224;-84
2021/05/31 09:18:38;;;;;;;2.72;2.47;;;;;;;;;;5033475;28;20199;-85
2021/05/31 09:21:16;;;;;;;2.58;2.35;;;;;;;;;;5033836;28;20218;-84
2021/05/31 09:23:44;;;;;;;2.67;2.47;;;;;;;;;;5033935;28;20232;-84
2021/05/31 09:26:11;;;;;;;3.03;2.42;;;;;;;;;;5034997;28;20213;-84
2021/05/31 09:28:38;;;;;;;4.18;3.00;;;;;;;;;;5034416;28;20204;-84
2021/05/31 09:31:17;;;;;;;6.50;2.85;;;;;;;;;;5033714;28;20289;-85
2021/05/31 09:33:44;;;;;;;2.58;2.38;;;;;;;;;;5033684;28;20214;-85
2021/05/31 09:36:13;;;;;;;4.00;3.15;;;;;;;;;;5033665;28;20253;-86
2021/05/31 09:38:50;;;;;;;2.65;2.45;;;;;;;;;;5033527;28;20206;-90
2021/05/31 09:41:26;;;;;;;2.63;2.42;;;;;;;;;;5033407;28;20233;-87
2021/05/31 09:43:58;;;;;;;2.95;2.47;;;;;;;;;;5033183;28;20257;-88
2021/05/31 09:46:36;;;;;;;3.10;2.42;;;;;;;;;;5033705;28;20202;-88
2021/05/31 09:49:18;;;;;;;3.42;2.50;;;;;;;;;;5033775;28;20206;-86
2021/05/31 09:51:59;;;;;;;2.65;2.45;;;;;;;;;;5033464;28;20195;-87
2021/05/31 09:54:32;;;;;;;2.13;2.03;;;;;;;;;;5033885;28;20305;-88
2021/05/31 09:57:00;;;;;;;4.82;2.28;;;;;;;;;;5033403;28;20194;-88
2021/05/31 09:59:28;;;;;;;3.40;2.33;;;;;;;;;;5033329;28;20202;-89
2021/05/31 10:01:59;;;;;;;2.25;2.03;;;;;;;;;;5033229;28;20219;-89
2021/05/31 10:04:33;;;;;;;3.80;2.35;;;;;;;;;;5033259;28;20250;-89
2021/05/31 10:07:13;;;;;;;2.30;1.92;;;;;;;;;;5034166;28;20229;-89
2021/05/31 10:09:41;;;;;;;2.50;2.30;;;;;;;;;;5033518;28;20194;-89
2021/05/31 10:12:10;;;;;;;3.13;2.20;;;;;;;;;;5034231;28;20267;-86
2021/05/31 10:14:37;;;;;;;2.25;2.13;;;;;;;;;;5033890;28;20222;-85
2021/05/31 10:17:05;;;;;;;2.40;2.08;;;;;;;;;;5034676;28;20585;-87
2021/05/31 10:19:32;;;;;;;4.55;2.55;;;;;;;;;;5033407;28;20233;-86
2021/05/31 10:22:01;;;;;;;2.80;2.53;;;;;;;;;;5032988;28;20635;-85
2021/05/31 10:24:29;;;;;;;2.65;2.45;;;;;;;;;;5033064;28;20222;-85
2021/05/31 10:26:56;;;;;;;3.15;2.67;;;;;;;;;;5034075;28;20217;-85
2021/05/31 10:29:24;;;;;;;3.05;2.75;;;;;;;;;;5033629;28;20553;-85
2021/05/31 10:31:51;;;;;;;2.58;2.20;;;;;;;;;;5034172;28;20202;-84
2021/05/31 10:34:20;;;;;;;3.17;2.28;;;;;;;;;;5033129;28;20228;-85
2021/05/31 10:36:50;;;;;;;3.50;2.90;;;;;;;;;;5032980;28;20230;-85
2021/05/31 10:39:27;;;;;;;2.08;1.90;;;;;;;;;;5033522;28;20203;-86
2021/05/31 10:42:05;;;;;;;2.58;2.38;;;;;;;;;;5033133;28;20228;-84
2021/05/31 10:44:32;;;;;;;2.30;2.17;;;;;;;;;;5035284;28;20218;-86
2021/05/31 10:47:07;;;;;;;2.83;2.63;;;;;;;;;;5035214;28;20204;-85
2021/05/31 10:49:34;;;;;;;3.25;2.53;;;;;;;;;;5035068;28;20265;-85
2021/05/31 10:52:01;;;;;;;2.20;2.00;;;;;;;;;;5035634;28;20612;-84
2021/05/31 10:54:35;;;;;;;3.25;1.77;;;;;;;;;;5034400;28;20795;-84
2021/05/31 10:57:09;;;;;;;7.63;2.42;;;;;;;;;;5035033;28;20213;-85
2021/05/31 10:59:47;;;;;;;3.42;2.17;;;;;;;;;;5034704;28;20202;-85
2021/05/31 11:02:25;;;;;;;2.97;2.10;;;;;;;;;;5034273;28;20228;-85
2021/05/31 11:04:53;;;;;;;2.10;2.00;;;;;;;;;;5032141;28;20240;-85
2021/05/31 11:07:26;;;;;;;1.88;1.65;;;;;;;;;;5031503;28;20256;-85
2021/05/31 11:09:55;;;;;;;3.97;2.30;;;;;;;;;;5033969;28;20205;-86
2021/05/31 11:12:29;;;;;;;2.30;1.92;;;;;;;;;;5033307;28;20194;-83
2021/05/31 11:15:09;;;;;;;1.95;1.70;;;;;;;;;;5032738;28;20723;-86
2021/05/31 11:17:48;;;;;;;1.58;1.48;;;;;;;;;;5033111;28;20552;-86
2021/05/31 11:20:17;;;;;;;1.70;1.60;;;;;;;;;;5033198;28;20264;-85
2021/05/31 11:22:54;;;;;;;1.58;1.48;;;;;;;;;;5034034;28;20210;-86
2021/05/31 11:25:22;;;;;;;4.22;2.25;;;;;;;;;;5033921;28;20256;-86
2021/05/31 11:27:55;;;;;;;2.60;2.22;;;;;;;;;;5033567;28;20198;-86
2021/05/31 11:30:26;;;;;;;2.75;1.70;;;;;;;;;;5033974;28;20270;-85
2021/05/31 11:32:54;;;;;;;2.55;1.75;;;;;;;;;;5032970;28;20202;-87
2021/05/31 11:35:22;;;;;;;2.67;2.47;;;;;;;;;;5032949;28;20211;-85
2021/05/31 11:37:51;;;;;;;2.00;1.90;;;;;;;;;;5033293;28;20314;-86
2021/05/31 11:40:25;;;;;;;2.10;2.00;;;;;;;;;;5033595;28;20657;-86
2021/05/31 11:42:54;;;;;;;2.10;2.00;;;;;;;;;;5033350;28;20232;-86
2021/05/31 11:45:24;;;;;;;2.13;1.92;;;;;;;;;;5034163;28;20234;-85
2021/05/31 11:47:56;;;;;;;2.10;1.90;;;;;;;;;;5034093;28;20661;-86
2021/05/31 11:50:24;;;;;;;1.90;1.80;;;;;;;;;;5034591;28;20719;-85
2021/05/31 11:52:51;;;;;;;3.35;2.50;;;;;;;;;;5034132;28;20205;-84
2021/05/31 11:55:23;;;;;;;2.13;1.90;;;;;;;;;;5033540;28;20214;-85
2021/05/31 11:57:51;;;;;;;2.10;2.00;;;;;;;;;;5033344;28;20582;-86
2021/05/31 12:00:21;;;;;;;3.80;2.47;;;;;;;;;;5033606;28;20198;-86
2021/05/31 12:02:48;;;;;;;2.58;2.38;;;;;;;;;;5033857;28;20226;-86
2021/05/31 12:05:26;;;;;;;2.50;1.95;;;;;;;;;;5034375;28;20222;-85
2021/05/31 12:07:53;;;;;;;2.22;1.60;;;;;;;;;;5033077;28;20202;-85
2021/05/31 12:10:22;;;;;;;2.40;2.10;;;;;;;;;;5034214;28;20202;-85
2021/05/31 12:12:49;;;;;;;2.13;1.83;;;;;;;;;;5035041;28;20195;-87
2021/05/31 12:15:17;;;;;;;3.13;2.15;;;;;;;;;;5034697;28;20264;-85
2021/05/31 12:17:45;;;;;;;2.08;1.92;;;;;;;;;;5037215;28;20270;-85
2021/05/31 12:20:12;;;;;;;2.50;2.30;;;;;;;;;;5039216;28;20263;-85
2021/05/31 12:22:39;;;;;;;2.15;1.95;;;;;;;;;;5038067;28;20229;-85
2021/05/31 12:25:09;;;;;;;2.10;2.00;;;;;;;;;;5036892;28;20291;-86
2021/05/31 12:27:40;;;;;;;4.07;2.38;;;;;;;;;;5037140;28;20202;-86
2021/05/31 12:30:12;;;;;;;6.07;2.20;;;;;;;;;;5037603;28;20209;-85
2021/05/31 12:32:39;;;;;;;2.58;2.35;;;;;;;;;;5036883;28;20256;-86
2021/05/31 12:35:08;;;;;;;2.10;1.90;;;;;;;;;;5037375;28;20229;-85
2021/05/31 12:37:37;;;;;;;2.30;2.20;;;;;;;;;;5037111;28;20627;-85
2021/05/31 12:40:07;;;;;;;1.90;1.80;;;;;;;;;;5036667;28;20210;-86
2021/05/31 12:42:36;;;;;;;1.95;1.85;;;;;;;;;;5035855;28;20230;-85
2021/05/31 12:45:08;;;;;;;2.90;2.00;;;;;;;;;;5035812;28;20215;-85
2021/05/31 12:47:37;;;;;;;3.13;2.10;;;;;;;;;;5036851;28;20205;-85
2021/05/31 12:50:08;;;;;;;2.42;2.05;;;;;;;;;;5036553;28;20210;-85
2021/05/31 12:52:38;;;;;;;2.85;2.65;;;;;;;;;;5037451;28;20726;-85
2021/05/31 12:55:13;;;;;;;2.40;2.20;;;;;;;;;;5035710;28;20651;-84
2021/05/31 12:57:44;;;;;;;2.28;1.90;;;;;;;;;;5036349;28;20679;-85
2021/05/31 13:00:15;;;;;;;3.15;1.83;;;;;;;;;;5035826;28;20627;-85
2021/05/31 13:02:43;;;;;;;2.47;2.13;;;;;;;;;;5035675;28;20708;-86
2021/05/31 13:05:13;;;;;;;2.65;2.45;;;;;;;;;;5036291;28;20222;-85
2021/05/31 13:07:47;;;;;;;2.65;2.45;;;;;;;;;;5034637;28;20653;-86
2021/05/31 13:10:17;;;;;;;2.78;2.58;;;;;;;;;;5035359;28;20259;-86
2021/05/31 13:12:54;;;;;;;4.00;1.88;;;;;;;;;;5034670;28;20268;-87
2021/05/31 13:15:23;;;;;;;2.90;2.08;;;;;;;;;;5034154;28;20218;-86
2021/05/31 13:17:51;;;;;;;2.00;1.90;;;;;;;;;;5034145;28;20324;-87
2021/05/31 13:20:20;;;;;;;6.78;1.88;;;;;;;;;;5033780;28;20202;-86
2021/05/31 13:22:58;;;;;;;6.38;2.90;;;;;;;;;;5034331;28;20229;-86
2021/05/31 13:25:26;;;;;;;2.92;2.67;;;;;;;;;;5034293;28;20229;-86
2021/05/31 13:27:55;;;;;;;8.48;3.72;;;;;;;;;;5033979;28;20209;-86
2021/05/31 13:30:23;;;;;;;3.55;2.50;;;;;;;;;;5034132;28;20194;-86
2021/05/31 13:32:56;;;;;;;3.40;2.30;;;;;;;;;;5034024;28;20195;-85
2021/05/31 13:35:24;;;;;;;2.10;1.90;;;;;;;;;;5034187;28;20230;-86
2021/05/31 13:37:53;;;;;;;4.93;2.38;;;;;;;;;;5033751;28;20234;-86
2021/05/31 13:40:29;;;;;;;3.58;2.40;;;;;;;;;;5034041;28;20234;-86
2021/05/31 13:43:03;;;;;;;1.67;1.58;;;;;;;;;;5034143;28;20305;-86
2021/05/31 13:45:32;;;;;;;2.03;1.83;;;;;;;;;;5034339;28;20268;-86
2021/05/31 13:47:59;;;;;;;2.08;1.98;;;;;;;;;;5035357;28;20210;-85
2021/05/31 13:50:28;;;;;;;2.35;2.05;;;;;;;;;;5035325;28;20206;-86
2021/05/31 13:52:55;;;;;;;2.45;1.67;;;;;;;;;;5034007;28;20662;-86
2021/05/31 13:55:23;;;;;;;5.68;2.33;;;;;;;;;;5033647;28;20218;-86
2021/05/31 13:57:50;;;;;;;2.97;2.10;;;;;;;;;;5033539;28;20202;-86
2021/05/31 14:00:21;;;;;;;3.58;2.00;;;;;;;;;;5033527;28;20202;-86
2021/05/31 14:02:55;;;;;;;2.40;2.20;;;;;;;;;;5033407;28;20230;-85
2021/05/31 14:05:22;;;;;;;4.82;1.77;;;;;;;;;;5033316;28;20313;-86
2021/05/31 14:07:49;;;;;;;2.40;1.85;;;;;;;;;;5033539;28;20259;-86
2021/05/31 14:10:17;;;;;;;2.67;2.15;;;;;;;;;;5033139;28;20205;-85
2021/05/31 14:12:45;;;;;;;1.92;1.83;;;;;;;;;;5033961;28;20198;-89
2021/05/31 14:15:13;;;;;;;3.08;1.95;;;;;;;;;;5034769;28;20233;-86
2021/05/31 14:17:42;;;;;;;1.50;1.40;;;;;;;;;;5034209;28;20704;-85
2021/05/31 14:20:11;;;;;;;1.85;1.75;;;;;;;;;;5034813;28;20210;-86
2021/05/31 14:22:39;;;;;;;2.65;1.80;;;;;;;;;;5033100;28;20232;-86
2021/05/31 14:25:09;;;;;;;2.10;1.75;;;;;;;;;;5032926;28;20221;-86
2021/05/31 14:27:36;;;;;;;4.65;1.98;;;;;;;;;;5032981;28;20206;-86
2021/05/31 14:30:06;;;;;;;2.42;1.83;;;;;;;;;;5032858;28;20202;-85
2021/05/31 14:32:33;;;;;;;2.13;1.85;;;;;;;;;;5032933;28;20195;-85
2021/05/31 14:35:02;;;;;;;2.30;1.55;;;;;;;;;;5032729;28;20210;-85
2021/05/31 14:37:30;;;;;;;2.17;1.90;;;;;;;;;;5032503;28;20723;-85
2021/05/31 14:39:57;;;;;;;1.67;1.58;;;;;;;;;;5032533;28;20218;-86
2021/05/31 14:42:24;;;;;;;2.05;1.85;;;;;;;;;;5033203;28;20232;-85
2021/05/31 14:44:52;;;;;;;2.45;1.88;;;;;;;;;;5032638;28;20288;-86
2021/05/31 14:47:20;;;;;;;1.90;1.80;;;;;;;;;;5032902;28;20198;-88
2021/05/31 14:49:48;;;;;;;1.63;1.52;;;;;;;;;;5032679;28;20217;-85
2021/05/31 14:52:17;;;;;;;2.08;1.70;;;;;;;;;;5032816;28;20206;-86
2021/05/31 14:54:45;;;;;;;1.73;1.63;;;;;;;;;;5032681;28;20218;-86
2021/05/31 14:57:12;;;;;;;2.00;1.80;;;;;;;;;;5032895;28;20289;-87
2021/05/31 14:59:39;;;;;;;4.57;2.08;;;;;;;;;;5033548;28;20651;-86
2021/05/31 15:02:07;;;;;;;2.30;1.70;;;;;;;;;;5032206;28;20212;-87